Aviation Digital Data Service (ADDS)

Output produced by METARs form (0241 UTC 25 January 2020)
found at http://www.aviationweather.gov/metar/data/
 
Forecast for: MNMG (MANAGUA/AUGUSTO , NI)
Text: MNMG 250200Z 2506/2606 14006KT CAVOK
Forecast period: 0600 to 1600 UTC 25 January 2020
Forecast type: FROM: standard forecast or significant change
Winds: from the SE (140 degrees) at 7 MPH (6 knots; 3.1 m/s)
Visibility: 6 or more miles 10+ km)
Ceiling: unknown
Clouds: missing
Weather: NSW  (no significant weather)
Text: FM251600 16008KT
Forecast period: 1600 to 2000 UTC 25 January 2020
Forecast type: FROM: standard forecast or significant change
Winds: from the SSE (160 degrees) at 9 MPH (8 knots; 4.1 m/s)
Visibility: missing
Ceiling: unknown
Clouds: missing
Weather: no significant weather forecast for this period
Text: BECMG 2520/2523 13010KT 9999 FEW020
Forecast period: 2000 UTC 25 January 2020 to 0600 UTC 26 January 2020
Forecast type: BECOMING: Conditions expected to become as follows by 2300 UTC 25 January 2020
Winds: from the SE (130 degrees) at 12 MPH (10 knots; 5.1 m/s)
Visibility: 6 or more miles 10+ km)
Ceiling: at least 12,000 feet AGL
Clouds: few clouds at 2000 feet AGL
Weather: no significant weather forecast for this period